SCX2528 KATL-KAFW
Flight info
| Callsign | SCX2528 |
|---|---|
| Flight time | N/A |
| Altitude | 30000 |
| Route | NASSA2 YAALL J14 LIT PONYY TRUUK3 |
| Aircraft | B738/M-SDE2E3FGHIRWXY/LB1 |
Departure
| Time | N/A |
|---|---|
| Airport | Hartsfield Jackson Atlanta International Airport (KATL) |
Arrival
| Time | 2026-05-05 22:57 |
|---|---|
| Airport | Perot Field/Fort Worth Alliance Airport (KAFW) |
| Time | Latitude | Longitude | Altitude | Speed | Heading |
|---|---|---|---|---|---|
| 2026-05-05 21:12 | 33.69023 | -85.87629 | 23949 ft | 432 kts | 270° |
| 2026-05-05 21:12 | 33.68966 | -85.91239 | 24166 ft | 433 kts | 270° |
| 2026-05-05 21:12 | 33.68909 | -85.94829 | 24377 ft | 433 kts | 270° |
| 2026-05-05 21:12 | 33.68850 | -85.98497 | 24591 ft | 434 kts | 270° |
| 2026-05-05 21:13 | 33.68791 | -86.02073 | 24780 ft | 435 kts | 271° |
| 2026-05-05 21:13 | 33.68774 | -86.05711 | 24960 ft | 435 kts | 273° |
| 2026-05-05 21:13 | 33.68960 | -86.09339 | 25147 ft | 435 kts | 276° |
| 2026-05-05 21:13 | 33.69260 | -86.12960 | 25349 ft | 435 kts | 277° |
| 2026-05-05 21:14 | 33.69597 | -86.16583 | 25552 ft | 436 kts | 277° |
| 2026-05-05 21:14 | 33.69928 | -86.20172 | 25732 ft | 436 kts | 277° |
| 2026-05-05 21:14 | 33.70247 | -86.23782 | 25973 ft | 435 kts | 277° |
| 2026-05-05 21:14 | 33.70550 | -86.27392 | 26263 ft | 433 kts | 277° |
| 2026-05-05 21:15 | 33.70838 | -86.30981 | 26527 ft | 431 kts | 277° |
| 2026-05-05 21:15 | 33.71117 | -86.34562 | 26807 ft | 430 kts | 277° |
| 2026-05-05 21:15 | 33.71391 | -86.38124 | 27111 ft | 428 kts | 277° |
| 2026-05-05 21:15 | 33.71661 | -86.41673 | 27428 ft | 425 kts | 277° |
| 2026-05-05 21:16 | 33.71924 | -86.45151 | 27753 ft | 423 kts | 277° |
| 2026-05-05 21:16 | 33.72189 | -86.48668 | 28086 ft | 421 kts | 278° |
| 2026-05-05 21:16 | 33.72452 | -86.52157 | 28415 ft | 419 kts | 278° |
| 2026-05-05 21:16 | 33.72713 | -86.55640 | 28755 ft | 417 kts | 278° |
| 2026-05-05 21:17 | 33.72972 | -86.59104 | 29095 ft | 415 kts | 278° |
| 2026-05-05 21:17 | 33.73056 | -86.60223 | 29243 ft | 413 kts | 278° |
| 2026-05-05 21:17 | 33.73395 | -86.64781 | 29875 ft | 408 kts | 278° |
| 2026-05-05 21:17 | 33.73729 | -86.69294 | 29984 ft | 408 kts | 278° |
| 2026-05-05 21:18 | 33.74229 | -86.76073 | 30002 ft | 406 kts | 278° |
| 2026-05-05 21:18 | 33.74723 | -86.82832 | 30001 ft | 404 kts | 278° |
| 2026-05-05 21:19 | 33.75211 | -86.89556 | 29995 ft | 403 kts | 278° |
| 2026-05-05 21:19 | 33.75690 | -86.96214 | 29981 ft | 401 kts | 278° |
| 2026-05-05 21:20 | 33.76168 | -87.02901 | 29971 ft | 401 kts | 278° |
| 2026-05-05 21:20 | 33.76642 | -87.09592 | 29965 ft | 400 kts | 278° |
| 2026-05-05 21:21 | 33.77107 | -87.16208 | 29961 ft | 399 kts | 278° |
| 2026-05-05 21:21 | 33.77571 | -87.22852 | 29974 ft | 398 kts | 278° |
| 2026-05-05 21:22 | 33.78031 | -87.29488 | 29970 ft | 398 kts | 278° |
| 2026-05-05 21:22 | 33.78483 | -87.36076 | 29972 ft | 397 kts | 278° |
| 2026-05-05 21:23 | 33.78934 | -87.42682 | 29972 ft | 396 kts | 278° |
| 2026-05-05 21:23 | 33.79468 | -87.49281 | 29963 ft | 394 kts | 283° |
| 2026-05-05 21:24 | 33.80747 | -87.55630 | 29964 ft | 393 kts | 286° |
| 2026-05-05 21:24 | 33.82137 | -87.61956 | 29952 ft | 394 kts | 286° |
| 2026-05-05 21:25 | 33.83280 | -87.67271 | 29941 ft | 394 kts | 286° |
| 2026-05-05 21:25 | 33.84845 | -87.74732 | 29921 ft | 395 kts | 285° |
| 2026-05-05 21:26 | 33.86175 | -87.81150 | 29929 ft | 395 kts | 285° |
| 2026-05-05 21:26 | 33.87500 | -87.87577 | 29921 ft | 395 kts | 285° |
| 2026-05-05 21:27 | 33.88813 | -87.93970 | 29934 ft | 395 kts | 285° |
| 2026-05-05 21:27 | 33.90133 | -88.00407 | 29920 ft | 395 kts | 285° |
| 2026-05-05 21:28 | 33.91449 | -88.06848 | 29917 ft | 395 kts | 285° |
| 2026-05-05 21:28 | 33.92751 | -88.13237 | 29914 ft | 395 kts | 285° |
| 2026-05-05 21:29 | 33.94057 | -88.19661 | 29914 ft | 395 kts | 285° |
| 2026-05-05 21:29 | 33.95362 | -88.26102 | 29919 ft | 395 kts | 285° |
| 2026-05-05 21:30 | 33.96656 | -88.32506 | 29914 ft | 395 kts | 285° |
| 2026-05-05 21:30 | 33.97949 | -88.38920 | 29907 ft | 395 kts | 285° |
| 2026-05-05 21:31 | 33.99233 | -88.45313 | 29913 ft | 394 kts | 285° |
| 2026-05-05 21:31 | 34.00524 | -88.51755 | 29900 ft | 394 kts | 284° |
| 2026-05-05 21:32 | 34.01800 | -88.58145 | 29913 ft | 394 kts | 284° |
| 2026-05-05 21:32 | 34.03082 | -88.64577 | 29910 ft | 394 kts | 284° |
| 2026-05-05 21:33 | 34.04358 | -88.71006 | 29921 ft | 394 kts | 284° |
| 2026-05-05 21:33 | 34.05629 | -88.77422 | 29919 ft | 393 kts | 284° |
| 2026-05-05 21:34 | 34.06888 | -88.83801 | 29914 ft | 393 kts | 284° |
| 2026-05-05 21:34 | 34.08152 | -88.90219 | 29914 ft | 393 kts | 284° |
| 2026-05-05 21:35 | 34.09414 | -88.96646 | 29912 ft | 393 kts | 284° |
| 2026-05-05 21:35 | 34.10667 | -89.03049 | 29911 ft | 393 kts | 284° |
| 2026-05-05 21:36 | 34.11916 | -89.09455 | 29909 ft | 393 kts | 284° |
| 2026-05-05 21:36 | 34.13169 | -89.15895 | 29902 ft | 393 kts | 284° |
| 2026-05-05 21:37 | 34.14417 | -89.22325 | 29895 ft | 393 kts | 284° |
| 2026-05-05 21:37 | 34.15650 | -89.28702 | 29901 ft | 393 kts | 284° |
| 2026-05-05 21:38 | 34.16889 | -89.35132 | 29904 ft | 393 kts | 284° |
| 2026-05-05 21:38 | 34.18124 | -89.41555 | 29902 ft | 393 kts | 283° |
| 2026-05-05 21:39 | 34.19358 | -89.47988 | 29901 ft | 393 kts | 283° |
| 2026-05-05 21:39 | 34.20641 | -89.54359 | 29901 ft | 392 kts | 285° |
| 2026-05-05 21:40 | 34.22180 | -89.60689 | 29901 ft | 392 kts | 286° |
| 2026-05-05 21:40 | 34.23745 | -89.67004 | 29896 ft | 391 kts | 286° |
| 2026-05-05 21:41 | 34.25281 | -89.73286 | 29869 ft | 391 kts | 286° |
| 2026-05-05 21:41 | 34.26812 | -89.79601 | 29876 ft | 391 kts | 286° |
| 2026-05-05 21:42 | 34.28337 | -89.85920 | 29870 ft | 391 kts | 286° |
| 2026-05-05 21:42 | 34.29852 | -89.92213 | 29872 ft | 391 kts | 286° |
| 2026-05-05 21:43 | 34.31378 | -89.98569 | 29869 ft | 392 kts | 285° |
| 2026-05-05 21:43 | 34.32888 | -90.04869 | 29867 ft | 392 kts | 285° |
| 2026-05-05 21:44 | 34.34404 | -90.11211 | 29856 ft | 392 kts | 285° |
| 2026-05-05 21:44 | 34.35905 | -90.17517 | 29858 ft | 391 kts | 285° |
| 2026-05-05 21:45 | 34.37410 | -90.23867 | 29856 ft | 392 kts | 285° |
| 2026-05-05 21:45 | 34.38904 | -90.30182 | 29847 ft | 392 kts | 285° |
| 2026-05-05 21:46 | 34.40403 | -90.36536 | 29850 ft | 391 kts | 285° |
| 2026-05-05 21:46 | 34.41646 | -90.41817 | 29857 ft | 391 kts | 285° |
| 2026-05-05 21:47 | 34.43380 | -90.49204 | 29847 ft | 391 kts | 285° |
| 2026-05-05 21:47 | 34.44866 | -90.55551 | 29851 ft | 391 kts | 285° |
| 2026-05-05 21:48 | 34.46345 | -90.61883 | 29846 ft | 391 kts | 285° |
| 2026-05-05 21:48 | 34.47816 | -90.68195 | 29848 ft | 391 kts | 285° |
| 2026-05-05 21:49 | 34.49289 | -90.74536 | 29833 ft | 390 kts | 284° |
| 2026-05-05 21:49 | 34.50758 | -90.80874 | 29830 ft | 390 kts | 284° |
| 2026-05-05 21:50 | 34.52223 | -90.87212 | 29829 ft | 390 kts | 284° |
| 2026-05-05 21:50 | 34.53675 | -90.93510 | 29829 ft | 390 kts | 284° |
| 2026-05-05 21:51 | 34.55133 | -90.99850 | 29820 ft | 390 kts | 284° |
| 2026-05-05 21:51 | 34.56581 | -91.06162 | 29831 ft | 390 kts | 284° |
| 2026-05-05 21:52 | 34.58757 | -91.15677 | 29821 ft | 389 kts | 284° |
| 2026-05-05 21:53 | 34.60194 | -91.21985 | 29829 ft | 389 kts | 284° |
| 2026-05-05 21:53 | 34.61634 | -91.28319 | 29825 ft | 389 kts | 284° |
| 2026-05-05 21:54 | 34.63072 | -91.34662 | 29826 ft | 389 kts | 284° |
| 2026-05-05 21:54 | 34.64497 | -91.40967 | 29835 ft | 389 kts | 284° |
| 2026-05-05 21:55 | 34.65930 | -91.47319 | 29836 ft | 389 kts | 284° |
| 2026-05-05 21:55 | 34.67352 | -91.53645 | 29836 ft | 389 kts | 284° |
| 2026-05-05 21:56 | 34.68743 | -91.59846 | 29834 ft | 389 kts | 283° |
| 2026-05-05 21:56 | 34.70165 | -91.66198 | 29832 ft | 389 kts | 283° |
| 2026-05-05 21:57 | 34.71583 | -91.72554 | 29824 ft | 389 kts | 283° |
| 2026-05-05 21:57 | 34.72998 | -91.78915 | 29821 ft | 389 kts | 283° |
| 2026-05-05 21:58 | 34.74403 | -91.85244 | 29814 ft | 389 kts | 283° |
| 2026-05-05 21:58 | 34.75808 | -91.91592 | 29806 ft | 389 kts | 283° |
| 2026-05-05 21:59 | 34.77208 | -91.97935 | 29808 ft | 388 kts | 283° |
| 2026-05-05 21:59 | 34.78373 | -92.03221 | 29810 ft | 388 kts | 283° |
| 2026-05-05 22:00 | 34.79727 | -92.09570 | 29796 ft | 387 kts | 279° |
| 2026-05-05 22:00 | 34.79900 | -92.16072 | 29808 ft | 387 kts | 268° |
| 2026-05-05 22:01 | 34.78963 | -92.22552 | 29799 ft | 393 kts | 257° |
| 2026-05-05 22:01 | 34.77173 | -92.28810 | 29797 ft | 392 kts | 255° |
| 2026-05-05 22:02 | 34.75351 | -92.35067 | 29815 ft | 392 kts | 255° |
| 2026-05-05 22:02 | 34.73544 | -92.41318 | 29802 ft | 392 kts | 255° |
| 2026-05-05 22:03 | 34.71748 | -92.47559 | 29798 ft | 392 kts | 256° |
| 2026-05-05 22:03 | 34.69944 | -92.53832 | 29787 ft | 393 kts | 256° |
| 2026-05-05 22:04 | 34.68148 | -92.60067 | 29793 ft | 393 kts | 256° |
| 2026-05-05 22:04 | 34.66335 | -92.66346 | 29781 ft | 394 kts | 255° |
| 2026-05-05 22:05 | 34.64523 | -92.72604 | 29789 ft | 394 kts | 255° |
| 2026-05-05 22:05 | 34.62700 | -92.78890 | 29782 ft | 394 kts | 255° |
| 2026-05-05 22:06 | 34.60871 | -92.85181 | 29786 ft | 395 kts | 255° |
| 2026-05-05 22:06 | 34.59051 | -92.91429 | 29785 ft | 395 kts | 255° |
| 2026-05-05 22:07 | 34.57212 | -92.97728 | 29795 ft | 395 kts | 255° |
| 2026-05-05 22:07 | 34.55369 | -93.04026 | 29800 ft | 396 kts | 255° |
| 2026-05-05 22:08 | 34.53538 | -93.10270 | 29804 ft | 395 kts | 255° |
| 2026-05-05 22:08 | 34.51688 | -93.16564 | 29801 ft | 395 kts | 255° |
| 2026-05-05 22:09 | 34.49836 | -93.22852 | 29793 ft | 395 kts | 255° |
| 2026-05-05 22:09 | 34.47992 | -93.29099 | 29786 ft | 395 kts | 255° |
| 2026-05-05 22:10 | 34.46137 | -93.35370 | 29782 ft | 395 kts | 255° |
| 2026-05-05 22:10 | 34.44281 | -93.41631 | 29762 ft | 395 kts | 255° |
| 2026-05-05 22:11 | 34.42420 | -93.47896 | 29758 ft | 394 kts | 255° |
| 2026-05-05 22:11 | 34.40570 | -93.54109 | 29749 ft | 394 kts | 255° |
| 2026-05-05 22:12 | 34.38703 | -93.60367 | 29752 ft | 394 kts | 255° |
| 2026-05-05 22:12 | 34.36846 | -93.66577 | 29750 ft | 394 kts | 255° |
| 2026-05-05 22:13 | 34.34975 | -93.72821 | 29748 ft | 394 kts | 255° |
| 2026-05-05 22:13 | 34.33109 | -93.79035 | 29747 ft | 394 kts | 255° |
| 2026-05-05 22:14 | 34.31241 | -93.85244 | 29749 ft | 394 kts | 255° |
| 2026-05-05 22:14 | 34.29359 | -93.91487 | 29735 ft | 394 kts | 255° |
| 2026-05-05 22:15 | 34.27488 | -93.97684 | 29745 ft | 394 kts | 255° |
| 2026-05-05 22:15 | 34.25618 | -94.03937 | 29733 ft | 393 kts | 256° |
| 2026-05-05 22:16 | 34.24005 | -94.10220 | 29740 ft | 392 kts | 258° |
| 2026-05-05 22:16 | 34.22442 | -94.16538 | 29738 ft | 393 kts | 258° |
| 2026-05-05 22:17 | 34.20855 | -94.22835 | 29742 ft | 393 kts | 258° |
| 2026-05-05 22:17 | 34.19244 | -94.29153 | 29737 ft | 393 kts | 257° |
| 2026-05-05 22:18 | 34.17637 | -94.35430 | 29743 ft | 393 kts | 257° |
| 2026-05-05 22:18 | 34.16018 | -94.41746 | 29743 ft | 393 kts | 257° |
| 2026-05-05 22:19 | 34.14403 | -94.48040 | 29739 ft | 392 kts | 258° |
| 2026-05-05 22:19 | 34.12832 | -94.54317 | 29739 ft | 392 kts | 258° |
| 2026-05-05 22:20 | 34.11262 | -94.60626 | 29738 ft | 392 kts | 258° |
| 2026-05-05 22:20 | 34.09700 | -94.66878 | 29731 ft | 391 kts | 258° |
| 2026-05-05 22:21 | 34.08124 | -94.73158 | 29743 ft | 391 kts | 258° |
| 2026-05-05 22:21 | 34.06542 | -94.79446 | 29732 ft | 392 kts | 258° |
| 2026-05-05 22:22 | 34.04955 | -94.85736 | 29741 ft | 391 kts | 258° |
| 2026-05-05 22:22 | 34.03377 | -94.91975 | 29731 ft | 392 kts | 258° |
| 2026-05-05 22:23 | 34.01785 | -94.98256 | 29733 ft | 392 kts | 258° |
| 2026-05-05 22:23 | 34.00191 | -95.04529 | 29734 ft | 391 kts | 258° |
| 2026-05-05 22:24 | 33.98594 | -95.10801 | 29733 ft | 391 kts | 258° |
| 2026-05-05 22:24 | 33.97003 | -95.17030 | 29731 ft | 392 kts | 258° |
| 2026-05-05 22:25 | 33.95400 | -95.23298 | 29736 ft | 392 kts | 258° |
| 2026-05-05 22:25 | 33.93793 | -95.29564 | 29740 ft | 392 kts | 258° |
| 2026-05-05 22:26 | 33.92183 | -95.35827 | 29742 ft | 392 kts | 258° |
| 2026-05-05 22:26 | 33.90569 | -95.42092 | 29743 ft | 392 kts | 258° |
| 2026-05-05 22:27 | 33.88964 | -95.48309 | 29740 ft | 392 kts | 258° |
| 2026-05-05 22:27 | 33.87339 | -95.54566 | 29737 ft | 392 kts | 258° |
| 2026-05-05 22:28 | 33.85696 | -95.60811 | 29740 ft | 392 kts | 258° |
| 2026-05-05 22:28 | 33.84048 | -95.67061 | 29739 ft | 392 kts | 258° |
| 2026-05-05 22:29 | 33.82397 | -95.73314 | 29737 ft | 392 kts | 258° |
| 2026-05-05 22:29 | 33.80753 | -95.79535 | 29732 ft | 393 kts | 258° |
| 2026-05-05 22:30 | 33.79092 | -95.85800 | 29735 ft | 393 kts | 258° |
| 2026-05-05 22:30 | 33.77427 | -95.92070 | 29728 ft | 394 kts | 258° |
| 2026-05-05 22:31 | 33.75763 | -95.98327 | 28940 ft | 401 kts | 257° |
| 2026-05-05 22:31 | 33.74918 | -96.01497 | 28141 ft | 396 kts | 257° |
| 2026-05-05 22:31 | 33.74075 | -96.04649 | 27215 ft | 396 kts | 257° |
| 2026-05-05 22:31 | 33.73231 | -96.07808 | 26232 ft | 398 kts | 256° |
| 2026-05-05 22:32 | 33.72383 | -96.10976 | 25431 ft | 396 kts | 256° |
| 2026-05-05 22:32 | 33.71541 | -96.14117 | 24695 ft | 397 kts | 256° |
| 2026-05-05 22:32 | 33.70683 | -96.17325 | 23968 ft | 409 kts | 256° |
| 2026-05-05 22:32 | 33.69814 | -96.20564 | 23202 ft | 406 kts | 255° |
| 2026-05-05 22:33 | 33.68949 | -96.23776 | 22362 ft | 402 kts | 255° |
| 2026-05-05 22:33 | 33.68105 | -96.26908 | 21622 ft | 397 kts | 255° |
| 2026-05-05 22:33 | 33.67261 | -96.30041 | 20898 ft | 392 kts | 254° |
| 2026-05-05 22:33 | 33.66427 | -96.33133 | 20194 ft | 387 kts | 254° |
| 2026-05-05 22:34 | 33.65585 | -96.36189 | 19505 ft | 384 kts | 251° |
| 2026-05-05 22:34 | 33.64320 | -96.39023 | 18811 ft | 388 kts | 238° |
| 2026-05-05 22:34 | 33.62503 | -96.41443 | 18096 ft | 392 kts | 227° |
| 2026-05-05 22:34 | 33.60451 | -96.43602 | 17239 ft | 392 kts | 225° |
| 2026-05-05 22:35 | 33.58378 | -96.45716 | 16445 ft | 390 kts | 225° |
| 2026-05-05 22:35 | 33.56347 | -96.47792 | 15725 ft | 387 kts | 225° |
| 2026-05-05 22:35 | 33.54322 | -96.49888 | 15007 ft | 383 kts | 225° |
| 2026-05-05 22:35 | 33.52320 | -96.51984 | 14304 ft | 381 kts | 225° |
| 2026-05-05 22:36 | 33.50333 | -96.54073 | 13606 ft | 379 kts | 225° |
| 2026-05-05 22:36 | 33.48358 | -96.56148 | 12848 ft | 377 kts | 224° |
| 2026-05-05 22:36 | 33.46582 | -96.58412 | 12114 ft | 369 kts | 239° |
| 2026-05-05 22:36 | 33.45468 | -96.61150 | 11376 ft | 366 kts | 252° |
| 2026-05-05 22:37 | 33.44976 | -96.64080 | 11100 ft | 352 kts | 265° |
| 2026-05-05 22:37 | 33.44918 | -96.66948 | 10921 ft | 338 kts | 269° |
| 2026-05-05 22:37 | 33.44943 | -96.69668 | 10781 ft | 324 kts | 270° |
| 2026-05-05 22:37 | 33.44981 | -96.72313 | 10636 ft | 312 kts | 270° |
| 2026-05-05 22:38 | 33.45012 | -96.74861 | 10501 ft | 301 kts | 270° |
| 2026-05-05 22:38 | 33.45034 | -96.77319 | 10383 ft | 290 kts | 270° |
| 2026-05-05 22:38 | 33.45049 | -96.79689 | 10260 ft | 280 kts | 269° |
| 2026-05-05 22:38 | 33.45059 | -96.81981 | 10153 ft | 271 kts | 269° |
| 2026-05-05 22:39 | 33.45065 | -96.84198 | 10042 ft | 262 kts | 269° |
| 2026-05-05 22:39 | 33.45069 | -96.86364 | 9787 ft | 259 kts | 269° |
| 2026-05-05 22:39 | 33.45072 | -96.88484 | 9519 ft | 258 kts | 269° |
| 2026-05-05 22:39 | 33.45075 | -96.90623 | 9224 ft | 256 kts | 269° |
| 2026-05-05 22:40 | 33.45077 | -96.92749 | 8943 ft | 254 kts | 269° |
| 2026-05-05 22:40 | 33.45078 | -96.94863 | 8665 ft | 253 kts | 269° |
| 2026-05-05 22:40 | 33.45079 | -96.96960 | 8376 ft | 251 kts | 269° |
| 2026-05-05 22:40 | 33.45079 | -96.99046 | 8110 ft | 249 kts | 269° |
| 2026-05-05 22:41 | 33.45080 | -97.01116 | 7835 ft | 248 kts | 269° |
| 2026-05-05 22:41 | 33.45080 | -97.03174 | 7560 ft | 247 kts | 269° |
| 2026-05-05 22:41 | 33.45079 | -97.05223 | 7293 ft | 245 kts | 269° |
| 2026-05-05 22:41 | 33.45078 | -97.07258 | 7030 ft | 244 kts | 269° |
| 2026-05-05 22:42 | 33.45076 | -97.09255 | 6765 ft | 243 kts | 269° |
| 2026-05-05 22:42 | 33.44922 | -97.11254 | 6481 ft | 242 kts | 253° |
| 2026-05-05 22:42 | 33.44288 | -97.13109 | 6227 ft | 240 kts | 246° |
| 2026-05-05 22:42 | 33.43600 | -97.14929 | 5949 ft | 240 kts | 246° |
| 2026-05-05 22:43 | 33.42915 | -97.16745 | 5672 ft | 239 kts | 246° |
| 2026-05-05 22:43 | 33.42232 | -97.18560 | 5357 ft | 239 kts | 246° |
| 2026-05-05 22:43 | 33.41555 | -97.20369 | 5084 ft | 238 kts | 246° |
| 2026-05-05 22:43 | 33.40888 | -97.22155 | 4816 ft | 238 kts | 245° |
| 2026-05-05 22:44 | 33.40215 | -97.23957 | 4526 ft | 237 kts | 245° |
| 2026-05-05 22:44 | 33.39544 | -97.25754 | 4248 ft | 236 kts | 245° |
| 2026-05-05 22:44 | 33.38599 | -97.27315 | 4052 ft | 234 kts | 218° |
| 2026-05-05 22:44 | 33.37101 | -97.28033 | 4028 ft | 238 kts | 189° |
| 2026-05-05 22:45 | 33.35444 | -97.27823 | 4019 ft | 239 kts | 173° |
| 2026-05-05 22:45 | 33.33810 | -97.27446 | 4017 ft | 241 kts | 173° |
| 2026-05-05 22:45 | 33.32139 | -97.27059 | 4032 ft | 246 kts | 173° |
| 2026-05-05 22:45 | 33.30712 | -97.26723 | 4002 ft | 242 kts | 173° |
| 2026-05-05 22:46 | 33.29105 | -97.26339 | 3998 ft | 235 kts | 173° |
| 2026-05-05 22:46 | 33.27613 | -97.25976 | 4005 ft | 237 kts | 173° |
| 2026-05-05 22:46 | 33.25972 | -97.25578 | 4008 ft | 241 kts | 173° |
| 2026-05-05 22:46 | 33.24329 | -97.25180 | 4025 ft | 242 kts | 173° |
| 2026-05-05 22:47 | 33.22656 | -97.24768 | 4018 ft | 247 kts | 172° |
| 2026-05-05 22:47 | 33.20969 | -97.24363 | 4013 ft | 247 kts | 173° |
| 2026-05-05 22:47 | 33.19314 | -97.23965 | 4005 ft | 244 kts | 173° |
| 2026-05-05 22:47 | 33.17651 | -97.23567 | 4008 ft | 243 kts | 172° |
| 2026-05-05 22:48 | 33.15999 | -97.23182 | 4017 ft | 242 kts | 173° |
| 2026-05-05 22:48 | 33.14336 | -97.22798 | 4010 ft | 245 kts | 173° |
| 2026-05-05 22:48 | 33.12664 | -97.22406 | 4010 ft | 245 kts | 173° |
| 2026-05-05 22:48 | 33.10997 | -97.22021 | 4002 ft | 244 kts | 173° |
| 2026-05-05 22:49 | 33.09326 | -97.21633 | 4020 ft | 245 kts | 173° |
| 2026-05-05 22:49 | 33.07651 | -97.21241 | 4012 ft | 245 kts | 173° |
| 2026-05-05 22:49 | 33.05973 | -97.20850 | 3987 ft | 246 kts | 173° |
| 2026-05-05 22:49 | 33.04294 | -97.20463 | 4003 ft | 247 kts | 173° |
| 2026-05-05 22:50 | 33.02618 | -97.20087 | 3991 ft | 248 kts | 173° |
| 2026-05-05 22:50 | 33.00913 | -97.19701 | 4010 ft | 249 kts | 173° |
| 2026-05-05 22:50 | 32.99212 | -97.19315 | 4003 ft | 247 kts | 173° |
| 2026-05-05 22:50 | 32.97530 | -97.18942 | 3902 ft | 248 kts | 173° |
| 2026-05-05 22:51 | 32.95848 | -97.18569 | 3772 ft | 243 kts | 173° |
| 2026-05-05 22:51 | 32.94206 | -97.18199 | 3628 ft | 237 kts | 173° |
| 2026-05-05 22:51 | 32.92606 | -97.17844 | 3499 ft | 230 kts | 172° |
| 2026-05-05 22:51 | 32.91054 | -97.17503 | 3362 ft | 222 kts | 173° |
| 2026-05-05 22:52 | 32.89587 | -97.17173 | 3278 ft | 211 kts | 172° |
| 2026-05-05 22:52 | 32.88171 | -97.16894 | 3143 ft | 202 kts | 179° |
| 2026-05-05 22:52 | 32.86869 | -97.17301 | 2997 ft | 192 kts | 213° |
| 2026-05-05 22:52 | 32.86112 | -97.18549 | 2872 ft | 189 kts | 248° |
| 2026-05-05 22:53 | 32.86128 | -97.20067 | 2756 ft | 182 kts | 271° |
| 2026-05-05 22:53 | 32.86354 | -97.21555 | 2660 ft | 182 kts | 272° |
| 2026-05-05 22:53 | 32.86594 | -97.23026 | 2534 ft | 181 kts | 272° |
| 2026-05-05 22:53 | 32.86849 | -97.24483 | 2432 ft | 180 kts | 272° |
| 2026-05-05 22:54 | 32.87098 | -97.25925 | 2406 ft | 183 kts | 273° |
| 2026-05-05 22:54 | 32.87342 | -97.27400 | 2394 ft | 179 kts | 272° |
| 2026-05-05 22:54 | 32.87837 | -97.28810 | 2345 ft | 196 kts | 307° |
| 2026-05-05 22:54 | 32.89024 | -97.29580 | 2309 ft | 200 kts | 337° |
| 2026-05-05 22:55 | 32.90282 | -97.30012 | 2084 ft | 190 kts | 343° |
| 2026-05-05 22:55 | 32.91611 | -97.30322 | 1805 ft | 181 kts | 347° |
| 2026-05-05 22:55 | 32.92835 | -97.30549 | 1549 ft | 176 kts | 347° |
| 2026-05-05 22:55 | 32.93958 | -97.30779 | 1367 ft | 168 kts | 346° |
| 2026-05-05 22:56 | 32.95033 | -97.31022 | 1199 ft | 156 kts | 347° |
| 2026-05-05 22:56 | 32.95940 | -97.31205 | 1033 ft | 146 kts | 347° |
| 2026-05-05 22:56 | 32.96877 | -97.31390 | 846 ft | 137 kts | 348° |
| 2026-05-05 22:56 | 32.97652 | -97.31555 | 704 ft | 130 kts | 346° |
| 2026-05-05 22:57 | 32.98432 | -97.31724 | 685 ft | 88 kts | 350° |
| 2026-05-05 22:57 | 32.98826 | -97.31802 | 686 ft | 37 kts | 350° |
| 2026-05-05 22:57 | 32.99070 | -97.31853 | 686 ft | 30 kts | 350° |
| 2026-05-05 22:57 | 32.99209 | -97.31903 | 690 ft | 15 kts | 301° |
| 2026-05-05 22:58 | 32.99207 | -97.32018 | 690 ft | 14 kts | 257° |
| 2026-05-05 22:58 | 32.99135 | -97.32069 | 685 ft | 13 kts | 169° |
| 2026-05-05 22:58 | 32.99044 | -97.32047 | 688 ft | 14 kts | 169° |
| 2026-05-05 22:58 | 32.98938 | -97.32024 | 685 ft | 17 kts | 169° |
| 2026-05-05 22:59 | 32.98819 | -97.32004 | 686 ft | 17 kts | 171° |
| 2026-05-05 22:59 | 32.98706 | -97.31982 | 686 ft | 16 kts | 166° |